createdAt,value
2019-04-07T00:01:58.328Z,114.07
2019-04-07T00:04:28.114Z,114.47
2019-04-07T00:06:57.766Z,110.90
2019-04-07T00:09:27.635Z,112.33
2019-04-07T00:11:57.165Z,107.07
2019-04-07T00:14:27.206Z,102.03
2019-04-07T00:16:56.946Z,100.03
2019-04-07T00:19:27.072Z,102.93
2019-04-07T00:21:56.761Z,99.77
2019-04-07T00:24:26.188Z,98.93
2019-04-07T00:26:55.802Z,96.27
2019-04-07T00:29:25.258Z,93.43
2019-04-07T00:31:54.663Z,90.23
2019-04-07T00:34:24.730Z,89.60
2019-04-07T00:36:54.202Z,89.20
2019-04-07T00:39:23.601Z,85.63
2019-04-07T00:41:53.033Z,82.03
2019-04-07T00:44:22.579Z,86.47
2019-04-07T00:46:52.571Z,83.83
2019-04-07T00:49:22.125Z,79.77
2019-04-07T00:51:52.973Z,83.27
2019-04-07T00:54:22.695Z,82.10
2019-04-07T00:56:52.224Z,82.57
2019-04-07T00:59:21.744Z,81.33
2019-04-07T01:01:51.442Z,79.70
2019-04-07T01:04:21.112Z,75.43
2019-04-07T01:06:50.676Z,80.03
2019-04-07T01:09:20.059Z,78.77
2019-04-07T01:11:49.601Z,80.67
2019-04-07T01:14:19.069Z,82.43
2019-04-07T01:16:48.534Z,84.70
2019-04-07T01:19:18.855Z,84.27
2019-04-07T01:21:48.552Z,78.57
2019-04-07T01:24:18.014Z,84.97
2019-04-07T01:26:48.141Z,83.93
2019-04-07T01:29:18.380Z,83.83
2019-04-07T01:31:49.452Z,83.20
2019-04-07T01:34:19.642Z,90.63
2019-04-07T01:36:49.252Z,87.43
2019-04-07T01:39:18.665Z,90.03
2019-04-07T01:41:56.233Z,86.77
2019-04-07T01:44:27.660Z,86.60
2019-04-07T01:47:02.541Z,89.33
2019-04-07T01:49:45.567Z,87.93
2019-04-07T01:52:22.703Z,90.97
2019-04-07T01:54:53.843Z,91.77
2019-04-07T01:57:43.025Z,91.90
2019-04-07T02:00:14.333Z,95.37
2019-04-07T02:03:00.214Z,92.10
2019-04-07T02:05:31.245Z,92.27
2019-04-07T02:08:05.520Z,93.43
2019-04-07T02:10:39.572Z,91.13
2019-04-07T02:13:11.047Z,91.17
2019-04-07T02:15:45.044Z,92.43
2019-04-07T02:18:16.375Z,93.73
2019-04-07T02:21:04.651Z,94.00
2019-04-07T02:23:52.911Z,90.57
2019-04-07T02:26:26.846Z,89.90
2019-04-07T02:29:14.338Z,96.53
2019-04-07T02:32:02.049Z,96.60
2019-04-07T02:34:36.237Z,99.27
2019-04-07T02:37:13.992Z,98.60
2019-04-07T02:39:51.106Z,99.37
2019-04-07T02:42:25.367Z,98.10
2019-04-07T02:44:57.357Z,103.27
2019-04-07T02:47:35.256Z,106.23
2019-04-07T02:50:12.770Z,108.93
2019-04-07T02:52:43.858Z,101.83
2019-04-07T02:55:21.850Z,103.23
2019-04-07T02:57:54.138Z,103.93
2019-04-07T03:00:25.530Z,100.23
2019-04-07T03:03:03.330Z,95.60
2019-04-07T03:05:37.841Z,90.33
2019-04-07T03:08:10.193Z,83.00
2019-04-07T03:10:47.381Z,80.07
2019-04-07T03:13:21.520Z,85.20
2019-04-07T03:15:52.829Z,83.60
2019-04-07T03:18:27.115Z,83.13
2019-04-07T03:21:04.140Z,86.07
2019-04-07T03:23:36.294Z,84.83
2019-04-07T03:26:07.957Z,89.33
2019-04-07T03:28:39.984Z,87.27
2019-04-07T03:31:22.473Z,89.20
2019-04-07T03:34:00.815Z,82.70
2019-04-07T03:37:09.585Z,83.97
2019-04-07T03:39:28.131Z,89.53
2019-04-07T03:42:02.950Z,88.47
2019-04-07T03:44:46.981Z,85.33
2019-04-07T03:47:30.190Z,85.77
2019-04-07T03:50:10.360Z,88.10
2019-04-07T03:52:58.487Z,86.40
2019-04-07T03:56:00.724Z,86.50
2019-04-07T04:01:40.179Z,88.80
2019-04-07T04:04:11.858Z,89.13
2019-04-07T04:07:17.864Z,90.03
2019-04-07T04:09:40.570Z,88.63
2019-04-07T04:12:29.939Z,89.43
2019-04-07T04:15:07.203Z,81.73
2019-04-07T04:17:37.053Z,91.37
2019-04-07T04:20:08.378Z,91.87
2019-04-07T04:22:39.357Z,96.40
2019-04-07T04:25:10.531Z,89.23
2019-04-07T04:27:40.207Z,88.30
2019-04-07T04:30:14.354Z,88.20
2019-04-07T04:32:43.861Z,86.00
2019-04-07T04:35:13.557Z,82.07
2019-04-07T04:37:48.746Z,82.30
2019-04-07T04:40:14.386Z,83.00
2019-04-07T04:42:44.382Z,83.77
2019-04-07T04:45:13.946Z,83.47
2019-04-07T04:47:43.404Z,80.13
2019-04-07T04:50:13.216Z,79.83
2019-04-07T04:52:42.861Z,80.10
2019-04-07T04:55:13.269Z,83.83
2019-04-07T04:57:42.867Z,87.70
2019-04-07T05:00:13.509Z,87.93
2019-04-07T05:02:44.186Z,93.17
2019-04-07T05:05:14.071Z,94.00
2019-04-07T05:07:55.224Z,92.17
2019-04-07T05:10:15.016Z,97.50
2019-04-07T05:12:44.597Z,94.50
2019-04-07T05:15:14.746Z,89.33
2019-04-07T05:17:44.570Z,93.80
2019-04-07T05:20:14.292Z,87.17
2019-04-07T05:22:44.350Z,87.63
2019-04-07T05:25:14.082Z,87.10
2019-04-07T05:27:43.671Z,87.47
2019-04-07T05:30:13.105Z,83.67
2019-04-07T05:32:43.131Z,85.33
2019-04-07T05:35:13.210Z,84.00
2019-04-07T05:37:43.357Z,84.20
2019-04-07T05:40:13.308Z,78.97
2019-04-07T05:42:43.455Z,79.20
2019-04-07T05:45:13.078Z,76.90
2019-04-07T05:47:47.288Z,75.37
2019-04-07T05:50:14.439Z,76.27
2019-04-07T05:52:44.020Z,75.00
2019-04-07T05:55:14.241Z,73.70
2019-04-07T05:57:45.319Z,72.30
2019-04-07T06:00:16.677Z,72.07
2019-04-07T06:02:46.943Z,72.43
2019-04-07T06:05:18.397Z,71.80
2019-04-07T06:07:48.119Z,70.80
2019-04-07T06:10:22.870Z,72.67
2019-04-07T06:12:51.759Z,69.93
2019-04-07T06:15:22.295Z,70.53
2019-04-07T06:17:52.265Z,68.53
2019-04-07T06:20:22.490Z,65.40
2019-04-07T06:22:53.652Z,62.60
2019-04-07T06:25:25.078Z,64.37
2019-04-07T06:27:54.687Z,65.13
2019-04-07T06:30:28.072Z,62.23
2019-04-07T06:32:56.917Z,62.40
2019-04-07T06:35:26.992Z,62.50
2019-04-07T06:37:59.372Z,61.17
2019-04-07T06:40:28.470Z,60.20
2019-04-07T06:42:58.108Z,59.57
2019-04-07T06:45:29.398Z,60.07
2019-04-07T06:48:02.554Z,59.90
2019-04-07T06:50:49.480Z,57.70
2019-04-07T06:53:18.357Z,57.37
2019-04-07T06:55:51.366Z,56.60
2019-04-07T06:58:28.464Z,54.10
2019-04-07T07:01:17.610Z,52.37
2019-04-07T07:04:09.438Z,51.23
2019-04-07T07:06:54.552Z,51.37
2019-04-07T07:09:28.889Z,51.37
2019-04-07T07:12:00.636Z,51.07
2019-04-07T07:14:40.504Z,50.67
2019-04-07T07:17:21.570Z,50.40
2019-04-07T07:20:12.384Z,51.27
2019-04-07T07:22:46.747Z,49.53
2019-04-07T07:25:15.626Z,50.20
2019-04-07T07:27:47.729Z,48.63
2019-04-07T07:30:18.343Z,49.33
2019-04-07T07:32:48.613Z,48.80
2019-04-07T07:35:18.176Z,50.23
2019-04-07T07:37:49.963Z,48.40
2019-04-07T07:40:21.225Z,47.80
2019-04-07T07:42:51.121Z,49.57
2019-04-07T07:45:20.930Z,48.33
2019-04-07T07:47:53.220Z,47.57
2019-04-07T07:50:21.566Z,45.97
2019-04-07T07:52:53.351Z,47.23
2019-04-07T07:55:22.477Z,45.37
2019-04-07T07:57:56.582Z,44.67
2019-04-07T08:00:23.042Z,45.57
2019-04-07T08:02:53.425Z,44.00
2019-04-07T08:05:23.866Z,42.50
2019-04-07T08:08:00.620Z,43.73
2019-04-07T08:10:30.249Z,42.10
2019-04-07T08:13:00.644Z,39.17
2019-04-07T08:15:32.648Z,40.87
2019-04-07T08:18:04.777Z,38.63
2019-04-07T08:20:33.909Z,37.03
2019-04-07T08:23:03.720Z,38.70
2019-04-07T08:25:33.578Z,39.53
2019-04-07T08:28:04.593Z,38.93
2019-04-07T08:30:34.306Z,37.83
2019-04-07T08:33:03.853Z,38.30
2019-04-07T08:35:37.770Z,37.53
2019-04-07T08:38:05.625Z,37.30
2019-04-07T08:40:37.475Z,37.30
2019-04-07T08:43:07.160Z,38.93
2019-04-07T08:45:38.309Z,35.20
2019-04-07T08:48:08.973Z,36.93
2019-04-07T08:50:40.952Z,34.50
2019-04-07T08:53:12.938Z,35.33
2019-04-07T08:55:41.743Z,35.60
2019-04-07T08:58:22.741Z,33.33
2019-04-07T09:00:53.595Z,33.53
2019-04-07T09:03:23.170Z,35.00
2019-04-07T09:05:56.531Z,34.43
2019-04-07T09:08:24.082Z,33.57
2019-04-07T09:10:59.325Z,35.43
2019-04-07T09:13:31.638Z,34.87
2019-04-07T09:16:04.702Z,36.00
2019-04-07T09:19:00.034Z,34.87
2019-04-07T09:21:37.239Z,34.33
2019-04-07T09:24:10.089Z,36.13
2019-04-07T09:26:47.131Z,33.80
2019-04-07T09:29:35.304Z,33.73
2019-04-07T09:32:22.543Z,33.60
2019-04-07T09:34:59.279Z,35.17
2019-04-07T09:37:31.084Z,34.20
2019-04-07T09:40:04.416Z,34.43
2019-04-07T09:42:35.631Z,34.13
2019-04-07T09:45:10.830Z,34.47
2019-04-07T09:47:41.380Z,34.87
2019-04-07T09:50:26.897Z,33.77
2019-04-07T09:53:09.923Z,33.53
2019-04-07T09:55:50.525Z,34.13
2019-04-07T09:58:24.991Z,33.93
2019-04-07T10:00:57.664Z,33.33
2019-04-07T10:03:32.037Z,33.77
2019-04-07T10:06:04.693Z,32.23
2019-04-07T10:08:36.320Z,32.37
2019-04-07T10:11:19.733Z,32.40
2019-04-07T10:13:51.161Z,31.47
2019-04-07T10:16:22.686Z,31.53
2019-04-07T10:19:00.668Z,31.60
2019-04-07T10:21:48.484Z,32.47
2019-04-07T10:24:25.861Z,32.10
2019-04-07T10:26:57.178Z,32.40
2019-04-07T10:29:31.873Z,31.50
2019-04-07T10:32:09.203Z,31.07
2019-04-07T10:34:40.773Z,31.27
2019-04-07T10:37:24.405Z,31.37
2019-04-07T10:40:16.806Z,32.03
2019-04-07T10:42:49.155Z,30.80
2019-04-07T10:45:20.710Z,31.43
2019-04-07T10:48:09.158Z,30.43
2019-04-07T10:50:59.115Z,32.47
2019-04-07T10:53:37.008Z,31.60
2019-04-07T10:56:08.873Z,31.70
2019-04-07T10:58:56.884Z,31.33
2019-04-07T11:01:27.966Z,31.03
2019-04-07T11:03:59.431Z,30.70
2019-04-07T11:06:30.625Z,31.13
2019-04-07T11:09:01.753Z,30.87
2019-04-07T11:11:49.173Z,29.80
2019-04-07T11:14:26.938Z,30.43
2019-04-07T11:17:08.075Z,29.50
2019-04-07T11:22:44.229Z,29.67
2019-04-07T11:25:16.438Z,30.87
2019-04-07T11:27:51.080Z,28.53
2019-04-07T11:30:28.874Z,28.67
2019-04-07T11:33:00.825Z,28.07
2019-04-07T11:38:23.470Z,28.35
2019-04-07T11:41:01.495Z,26.90
2019-04-07T11:43:48.926Z,26.30
2019-04-07T11:46:26.309Z,25.10
2019-04-07T11:49:00.838Z,24.83
2019-04-07T11:51:32.447Z,23.97
2019-04-07T11:54:06.649Z,24.63
2019-04-07T11:56:38.312Z,23.20
2019-04-07T11:59:12.108Z,20.75
2019-04-07T12:01:46.078Z,19.10
2019-04-07T12:04:28.055Z,21.77
2019-04-07T12:07:18.862Z,21.77
2019-04-07T12:09:47.747Z,22.77
2019-04-07T12:12:18.915Z,23.07
2019-04-07T12:14:52.474Z,21.23
2019-04-07T12:17:42.047Z,20.53
2019-04-07T12:20:21.349Z,19.00
2019-04-07T12:22:52.826Z,20.37
2019-04-07T12:25:37.265Z,19.47
2019-04-07T12:28:23.506Z,19.20
2019-04-07T12:31:03.953Z,18.85
2019-04-07T12:33:39.326Z,18.83
2019-04-07T12:36:12.975Z,18.63
2019-04-07T12:38:51.036Z,17.53
2019-04-07T12:41:34.714Z,19.25
2019-04-07T12:44:06.213Z,19.07
2019-04-07T12:46:37.713Z,20.77
2019-04-07T12:49:09.688Z,20.50
2019-04-07T12:51:40.932Z,19.57
2019-04-07T12:54:12.091Z,18.23
2019-04-07T12:56:52.362Z,18.17
2019-04-07T12:59:39.680Z,17.90
2019-04-07T13:02:29.160Z,16.57
2019-04-07T13:05:05.284Z,14.77
2019-04-07T13:07:37.591Z,15.10
2019-04-07T13:10:26.854Z,13.90
2019-04-07T13:13:01.598Z,14.30
2019-04-07T13:15:33.567Z,13.83
2019-04-07T13:18:08.616Z,13.83
2019-04-07T13:20:40.770Z,13.30
2019-04-07T13:23:21.139Z,13.53
2019-04-07T13:26:02.114Z,12.93
2019-04-07T13:28:33.419Z,14.03
2019-04-07T13:31:16.590Z,13.17
2019-04-07T13:33:51.124Z,12.80
2019-04-07T13:36:37.777Z,12.13
2019-04-07T13:39:10.211Z,10.75
2019-04-07T13:41:56.302Z,11.43
2019-04-07T13:44:41.657Z,12.53
2019-04-07T13:47:13.037Z,12.23
2019-04-07T13:49:55.403Z,11.90
2019-04-07T13:52:34.919Z,12.13
2019-04-07T13:55:25.043Z,11.87
2019-04-07T13:57:59.491Z,11.93
2019-04-07T14:00:48.223Z,12.43
2019-04-07T14:03:25.551Z,12.60
2019-04-07T14:05:56.842Z,12.37
2019-04-07T14:08:29.939Z,12.60
2019-04-07T14:11:01.440Z,12.70
2019-04-07T14:13:51.247Z,12.87
2019-04-07T14:16:22.409Z,12.60
2019-04-07T14:18:54.540Z,11.80
2019-04-07T14:21:26.344Z,12.43
2019-04-07T14:23:58.169Z,12.67
2019-04-07T14:26:46.697Z,12.53
2019-04-07T14:29:18.508Z,13.27
2019-04-07T14:32:05.630Z,12.83
2019-04-07T14:34:53.207Z,13.23
2019-04-07T14:37:24.250Z,12.93
2019-04-07T14:40:11.893Z,20.77
2019-04-07T14:42:44.447Z,16.50
2019-04-07T14:45:28.338Z,15.67
2019-04-07T14:48:02.171Z,14.40
2019-04-07T14:50:33.483Z,13.50
2019-04-07T14:53:10.994Z,13.97
2019-04-07T14:55:43.102Z,14.73
2019-04-07T14:58:18.958Z,13.13
2019-04-07T15:00:50.895Z,13.83
2019-04-07T15:03:21.333Z,14.03
2019-04-07T15:05:55.145Z,13.53
2019-04-07T15:08:55.243Z,13.30
2019-04-07T15:11:32.399Z,12.77
2019-04-07T15:14:02.733Z,13.73
2019-04-07T15:16:36.738Z,13.20
2019-04-07T15:19:06.233Z,14.27
2019-04-07T15:21:36.298Z,15.13
2019-04-07T15:24:07.503Z,16.13
2019-04-07T15:26:40.049Z,15.87
2019-04-07T15:29:10.811Z,18.57
2019-04-07T15:31:40.587Z,17.83
2019-04-07T15:34:11.933Z,17.17
2019-04-07T15:36:41.501Z,18.10
2019-04-07T15:39:11.064Z,18.67
2019-04-07T15:41:42.488Z,18.23
2019-04-07T15:44:14.059Z,17.90
2019-04-07T15:46:43.705Z,24.40
2019-04-07T15:49:13.352Z,25.40
2019-04-07T15:51:43.627Z,25.73
2019-04-07T15:54:13.510Z,27.07
2019-04-07T15:56:45.429Z,31.57
2019-04-07T15:59:17.930Z,33.83
2019-04-07T16:01:47.261Z,34.70
2019-04-07T16:04:16.797Z,35.60
2019-04-07T16:06:48.726Z,35.63
2019-04-07T16:09:29.627Z,35.43
2019-04-07T16:11:49.590Z,35.97
2019-04-07T16:14:21.968Z,37.83
2019-04-07T16:16:52.799Z,36.60
2019-04-07T16:19:34.901Z,38.97
2019-04-07T16:21:53.828Z,40.10
2019-04-07T16:24:23.324Z,41.97
2019-04-07T16:26:52.747Z,44.00
2019-04-07T16:29:22.342Z,48.07
2019-04-07T16:31:51.889Z,48.43
2019-04-07T16:34:22.877Z,47.03
2019-04-07T16:36:55.128Z,48.00
2019-04-07T16:39:23.441Z,48.13
2019-04-07T16:41:53.395Z,48.50
2019-04-07T16:44:23.326Z,49.13
2019-04-07T16:46:57.172Z,49.10
2019-04-07T16:49:24.680Z,48.57
2019-04-07T16:51:54.140Z,47.00
2019-04-07T16:54:24.464Z,43.63
2019-04-07T16:56:57.089Z,42.60
2019-04-07T16:59:25.381Z,42.50
2019-04-07T17:01:55.022Z,43.63
2019-04-07T17:04:25.687Z,42.30
2019-04-07T17:07:03.295Z,40.23
2019-04-07T17:09:28.237Z,43.17
2019-04-07T17:11:57.846Z,43.37
2019-04-07T17:14:31.027Z,43.60
2019-04-07T17:16:59.094Z,43.97
2019-04-07T17:19:30.176Z,44.40
2019-04-07T17:22:00.759Z,43.17
2019-04-07T17:24:30.731Z,42.73
2019-04-07T17:27:01.016Z,42.53
2019-04-07T17:29:32.152Z,44.47
2019-04-07T17:32:02.799Z,43.70
2019-04-07T17:34:33.654Z,44.23
2019-04-07T17:37:03.994Z,43.87
2019-04-07T17:39:42.183Z,43.80
2019-04-07T17:42:12.621Z,45.70
2019-04-07T17:44:47.815Z,45.00
2019-04-07T17:47:36.660Z,45.43
2019-04-07T17:50:20.982Z,44.63
2019-04-07T17:52:54.679Z,47.17
2019-04-07T17:55:27.770Z,47.93
2019-04-07T17:58:01.652Z,47.43
2019-04-07T18:00:32.895Z,48.00
2019-04-07T18:03:11.541Z,50.47
2019-04-07T18:05:45.869Z,53.40
2019-04-07T18:08:19.868Z,52.67
2019-04-07T18:10:51.724Z,53.60
2019-04-07T18:13:46.004Z,52.73
2019-04-07T18:16:25.613Z,57.27
2019-04-07T18:18:59.682Z,59.20
2019-04-07T18:21:31.416Z,57.10
2019-04-07T18:24:08.370Z,56.00
2019-04-07T18:26:44.797Z,55.03
2019-04-07T18:29:14.955Z,53.97
2019-04-07T18:32:01.979Z,55.30
2019-04-07T18:34:39.715Z,58.50
2019-04-07T18:37:11.697Z,57.43
2019-04-07T18:40:01.748Z,62.57
2019-04-07T18:42:48.998Z,58.67
2019-04-07T18:45:26.109Z,54.53
2019-04-07T18:48:08.095Z,54.20
2019-04-07T18:50:57.590Z,57.83
2019-04-07T18:53:28.907Z,58.77
2019-04-07T18:56:16.275Z,60.53
2019-04-07T18:58:50.876Z,60.10
2019-04-07T19:01:27.033Z,62.90
2019-04-07T19:04:01.066Z,61.70
2019-04-07T19:06:51.555Z,66.50
2019-04-07T19:09:33.097Z,68.27
2019-04-07T19:12:22.940Z,73.17
2019-04-07T19:15:03.781Z,71.80
2019-04-07T19:17:38.534Z,72.67
2019-04-07T19:20:12.978Z,80.27
2019-04-07T19:22:51.343Z,86.10
2019-04-07T19:25:29.139Z,91.57
2019-04-07T19:28:07.799Z,91.87
2019-04-07T19:30:46.861Z,89.90
2019-04-07T19:33:17.968Z,92.00
2019-04-07T19:35:49.794Z,95.77
2019-04-07T19:38:23.344Z,96.53
2019-04-07T19:41:06.781Z,98.33
2019-04-07T19:43:41.849Z,97.17
2019-04-07T19:46:28.167Z,100.93
2019-04-07T19:49:13.926Z,101.40
2019-04-07T19:51:49.299Z,103.67
2019-04-07T19:54:23.546Z,101.00
2019-04-07T19:57:04.768Z,99.10
2019-04-07T19:59:39.370Z,96.60
2019-04-07T20:02:15.312Z,97.50
2019-04-07T20:05:05.799Z,95.77
2019-04-07T20:07:39.801Z,94.90
2019-04-07T20:10:28.204Z,91.07
2019-04-07T20:13:00.389Z,87.80
2019-04-07T20:15:39.051Z,87.17
2019-04-07T20:18:19.160Z,90.13
2019-04-07T20:20:53.774Z,85.43
2019-04-07T20:23:41.453Z,83.87
2019-04-07T20:26:22.089Z,82.67
2019-04-07T20:28:52.089Z,83.10
2019-04-07T20:31:35.098Z,83.03
2019-04-07T20:34:12.302Z,81.53
2019-04-07T20:36:44.362Z,82.37
2019-04-07T20:39:19.284Z,79.20
2019-04-07T20:41:53.363Z,80.37
2019-04-07T20:44:39.891Z,84.47
2019-04-07T20:47:10.994Z,86.83
2019-04-07T20:49:58.854Z,85.33
2019-04-07T20:52:32.038Z,87.23
2019-04-07T20:55:09.853Z,85.80
2019-04-07T20:57:43.524Z,87.13
2019-04-07T21:00:14.841Z,89.27
2019-04-07T21:05:34.500Z,76.43
2019-04-07T21:08:17.584Z,76.47
2019-04-07T21:10:50.456Z,73.80
2019-04-07T21:13:37.771Z,77.63
2019-04-07T21:16:08.882Z,78.77
2019-04-07T21:18:46.878Z,79.67
2019-04-07T21:21:24.499Z,83.60
2019-04-07T21:24:18.195Z,82.40
2019-04-07T21:26:47.954Z,84.80
2019-04-07T21:29:34.522Z,85.07
2019-04-07T21:32:08.825Z,82.83
2019-04-07T21:34:38.604Z,81.90
2019-04-07T21:37:13.320Z,78.47
2019-04-07T21:39:42.479Z,80.67
2019-04-07T21:42:18.666Z,76.90
2019-04-07T21:44:51.807Z,84.43
2019-04-07T21:47:26.985Z,92.80
2019-04-07T21:50:10.008Z,96.23
2019-04-07T21:52:55.250Z,97.33
2019-04-07T21:55:28.757Z,96.33
2019-04-07T21:58:16.657Z,99.03
2019-04-07T22:00:51.113Z,98.20
2019-04-07T22:03:31.311Z,98.53
2019-04-07T22:06:14.532Z,97.63
2019-04-07T22:09:00.899Z,100.93
2019-04-07T22:11:30.571Z,102.53
2019-04-07T22:14:00.992Z,104.90
2019-04-07T22:16:31.873Z,108.13
2019-04-07T22:19:01.543Z,108.23
2019-04-07T22:21:31.959Z,109.30
2019-04-07T22:24:02.196Z,110.90
2019-04-07T22:26:33.477Z,105.57
2019-04-07T22:29:04.410Z,100.07
2019-04-07T22:31:51.562Z,97.90
2019-04-07T22:34:21.189Z,115.03
2019-04-07T22:36:50.618Z,105.50
2019-04-07T22:39:20.527Z,111.57
2019-04-07T22:41:50.464Z,111.87
2019-04-07T22:44:21.880Z,113.33
2019-04-07T22:46:52.334Z,113.50
2019-04-07T22:49:21.955Z,115.87
2019-04-07T22:51:53.821Z,124.53
2019-04-07T22:54:22.415Z,122.30
2019-04-07T22:56:52.278Z,125.17
2019-04-07T22:59:21.915Z,121.93
2019-04-07T23:01:51.537Z,120.00
2019-04-07T23:04:23.619Z,120.00
2019-04-07T23:06:53.013Z,117.10
2019-04-07T23:09:23.089Z,116.00
2019-04-07T23:11:52.627Z,114.10
2019-04-07T23:14:22.118Z,111.67
2019-04-07T23:16:52.026Z,108.77
2019-04-07T23:19:21.545Z,107.13
2019-04-07T23:21:51.295Z,108.77
2019-04-07T23:24:21.293Z,117.97
2019-04-07T23:26:51.030Z,126.30
2019-04-07T23:29:20.525Z,128.50
2019-04-07T23:31:50.138Z,128.70
2019-04-07T23:34:19.594Z,124.70
2019-04-07T23:36:49.844Z,115.73
2019-04-07T23:39:19.569Z,128.77
2019-04-07T23:41:49.157Z,132.17
2019-04-07T23:44:18.632Z,131.77
2019-04-07T23:46:48.816Z,121.13
2019-04-07T23:49:19.108Z,98.87
2019-04-07T23:51:48.558Z,101.47
2019-04-07T23:54:18.374Z,103.97
2019-04-07T23:56:47.895Z,111.40
2019-04-07T23:59:17.439Z,124.23
